To NAV CANADA Home Page Login to a new session Search on AWWS site Feedback and Comments Disclaimer Vers la page française équivalente Tips FAQ What's new on the site To the Forecasts and Observations / NOTAM section To "File a Flight Plan" website Publications and other links Update of the User's profile FIC Telephone Numbers My Weather Data Folder Route Weather Data Regional Weather Data Local Weather Data To the Forecasts and Observations / NOTAM section
Request Generated 02/23/2017 at 20:46:11 UTC . Weather information available at that time is displayed.

METAR/TAF

ST. JOHN'S/ST. JOHN'S INTL/NL    

METAR CYYT 232000Z 32010KT 15SM FEW020 00/M03 A2972 RMK SC1 CLD ESTD
SLP072=
METAR CYYT 231900Z 30014G19KT 15SM FEW020 00/M03 A2969 RMK SC2 CLD
ESTD SLP062=
METAR CYYT 231800Z 31016G21KT 15SM SCT020 M00/M03 A2965 RMK SC4 CLD
HGT ESTD SLP049=

TAF AMD CYYT 232009Z 2320/2418 30012KT P6SM SCT015
BECMG 2401/2403 24010KT
FM240400 24012KT P6SM BKN006 OVC080
FM240900 21020KT 3SM -SNRA BKN005 OVC012 PROB30 2409/2411 3SM
-FZRA BR
FM241100 23025KT 5SM -RA BR BKN005 OVC012
FM241500 25022G32KT 5SM -DZ BR BKN008 OVC012
RMK NXT FCST BY 240000Z=
Your time UTC time
Weather data provided by Environment Canada and NAV CANADA